sensor_id;sensor_type;location;lat;lon;timestamp;temperature;humidity
66722;SHT31;53633;49.932;10.884;2024-01-16T00:01:06;0.86;81.92
66722;SHT31;53633;49.932;10.884;2024-01-16T00:03:33;0.87;81.83
66722;SHT31;53633;49.932;10.884;2024-01-16T00:06:00;0.84;81.72
66722;SHT31;53633;49.932;10.884;2024-01-16T00:08:27;0.91;81.81
66722;SHT31;53633;49.932;10.884;2024-01-16T00:10:54;0.88;81.77
66722;SHT31;53633;49.932;10.884;2024-01-16T00:13:21;0.86;81.94
66722;SHT31;53633;49.932;10.884;2024-01-16T00:15:47;0.88;81.96
66722;SHT31;53633;49.932;10.884;2024-01-16T00:18:15;0.96;81.91
66722;SHT31;53633;49.932;10.884;2024-01-16T00:20:42;0.96;81.93
66722;SHT31;53633;49.932;10.884;2024-01-16T00:23:09;0.98;81.75
66722;SHT31;53633;49.932;10.884;2024-01-16T00:25:36;1.07;81.76
66722;SHT31;53633;49.932;10.884;2024-01-16T00:28:03;0.96;81.61
66722;SHT31;53633;49.932;10.884;2024-01-16T00:30:30;0.97;81.48
66722;SHT31;53633;49.932;10.884;2024-01-16T00:32:56;1.03;81.50
66722;SHT31;53633;49.932;10.884;2024-01-16T00:35:25;0.97;81.27
66722;SHT31;53633;49.932;10.884;2024-01-16T00:37:52;0.93;81.23
66722;SHT31;53633;49.932;10.884;2024-01-16T00:40:18;0.97;81.23
66722;SHT31;53633;49.932;10.884;2024-01-16T00:42:45;0.96;81.15
66722;SHT31;53633;49.932;10.884;2024-01-16T00:45:12;0.94;81.28
66722;SHT31;53633;49.932;10.884;2024-01-16T00:47:39;0.96;81.23
66722;SHT31;53633;49.932;10.884;2024-01-16T00:50:06;0.79;81.55
66722;SHT31;53633;49.932;10.884;2024-01-16T00:52:34;0.80;81.68
66722;SHT31;53633;49.932;10.884;2024-01-16T00:55:00;0.87;81.64
66722;SHT31;53633;49.932;10.884;2024-01-16T00:57:27;0.83;81.68
66722;SHT31;53633;49.932;10.884;2024-01-16T00:59:54;0.87;81.51
66722;SHT31;53633;49.932;10.884;2024-01-16T01:02:21;0.86;81.53
66722;SHT31;53633;49.932;10.884;2024-01-16T01:04:47;0.90;81.49
66722;SHT31;53633;49.932;10.884;2024-01-16T01:07:14;0.83;81.60
66722;SHT31;53633;49.932;10.884;2024-01-16T01:09:42;0.84;81.65
66722;SHT31;53633;49.932;10.884;2024-01-16T01:12:09;0.79;81.79
66722;SHT31;53633;49.932;10.884;2024-01-16T01:14:36;0.77;81.80
66722;SHT31;53633;49.932;10.884;2024-01-16T01:17:03;0.81;81.80
66722;SHT31;53633;49.932;10.884;2024-01-16T01:19:30;0.86;81.79
66722;SHT31;53633;49.932;10.884;2024-01-16T01:21:57;0.93;81.74
66722;SHT31;53633;49.932;10.884;2024-01-16T01:24:23;0.87;81.76
66722;SHT31;53633;49.932;10.884;2024-01-16T01:26:51;0.81;81.88
66722;SHT31;53633;49.932;10.884;2024-01-16T01:29:18;0.73;82.09
66722;SHT31;53633;49.932;10.884;2024-01-16T01:31:45;0.80;81.94
66722;SHT31;53633;49.932;10.884;2024-01-16T01:34:12;0.76;81.94
66722;SHT31;53633;49.932;10.884;2024-01-16T01:36:39;0.60;82.20
66722;SHT31;53633;49.932;10.884;2024-01-16T01:39:06;0.60;82.20
66722;SHT31;53633;49.932;10.884;2024-01-16T01:41:32;0.69;82.13
66722;SHT31;53633;49.932;10.884;2024-01-16T01:44:00;0.75;82.07
66722;SHT31;53633;49.932;10.884;2024-01-16T01:46:28;0.73;82.11
66722;SHT31;53633;49.932;10.884;2024-01-16T01:48:55;0.79;81.92
66722;SHT31;53633;49.932;10.884;2024-01-16T01:51:23;0.80;81.73
66722;SHT31;53633;49.932;10.884;2024-01-16T01:53:51;0.76;81.62
66722;SHT31;53633;49.932;10.884;2024-01-16T01:56:19;0.69;81.70
66722;SHT31;53633;49.932;10.884;2024-01-16T01:58:48;0.77;81.69
66722;SHT31;53633;49.932;10.884;2024-01-16T02:01:18;0.77;81.53
66722;SHT31;53633;49.932;10.884;2024-01-16T02:03:47;0.79;81.37
66722;SHT31;53633;49.932;10.884;2024-01-16T02:06:15;0.76;81.35
66722;SHT31;53633;49.932;10.884;2024-01-16T02:08:43;0.63;81.39
66722;SHT31;53633;49.932;10.884;2024-01-16T02:11:11;0.58;81.59
66722;SHT31;53633;49.932;10.884;2024-01-16T02:13:37;0.55;81.62
66722;SHT31;53633;49.932;10.884;2024-01-16T02:16:04;0.63;81.55
66722;SHT31;53633;49.932;10.884;2024-01-16T02:18:32;0.60;81.44
66722;SHT31;53633;49.932;10.884;2024-01-16T02:21:00;0.60;81.40
66722;SHT31;53633;49.932;10.884;2024-01-16T02:23:29;0.56;81.44
66722;SHT31;53633;49.932;10.884;2024-01-16T02:25:57;0.58;81.46
66722;SHT31;53633;49.932;10.884;2024-01-16T02:28:23;0.56;81.50
66722;SHT31;53633;49.932;10.884;2024-01-16T02:30:50;0.55;81.49
66722;SHT31;53633;49.932;10.884;2024-01-16T02:33:17;0.50;81.37
66722;SHT31;53633;49.932;10.884;2024-01-16T02:35:44;0.55;81.48
66722;SHT31;53633;49.932;10.884;2024-01-16T02:38:10;0.59;81.42
66722;SHT31;53633;49.932;10.884;2024-01-16T02:40:39;0.53;81.61
66722;SHT31;53633;49.932;10.884;2024-01-16T02:43:05;0.56;81.53
66722;SHT31;53633;49.932;10.884;2024-01-16T02:45:32;0.59;81.16
66722;SHT31;53633;49.932;10.884;2024-01-16T02:47:59;0.59;80.99
66722;SHT31;53633;49.932;10.884;2024-01-16T02:50:26;0.48;81.23
66722;SHT31;53633;49.932;10.884;2024-01-16T02:52:53;0.48;81.21
66722;SHT31;53633;49.932;10.884;2024-01-16T02:55:20;0.53;81.20
66722;SHT31;53633;49.932;10.884;2024-01-16T02:57:48;0.52;81.17
66722;SHT31;53633;49.932;10.884;2024-01-16T03:00:15;0.56;81.04
66722;SHT31;53633;49.932;10.884;2024-01-16T03:02:41;0.60;80.99
66722;SHT31;53633;49.932;10.884;2024-01-16T03:05:08;0.60;80.93
66722;SHT31;53633;49.932;10.884;2024-01-16T03:07:35;0.63;80.58
66722;SHT31;53633;49.932;10.884;2024-01-16T03:10:02;0.66;80.54
66722;SHT31;53633;49.932;10.884;2024-01-16T03:12:29;0.52;80.59
66722;SHT31;53633;49.932;10.884;2024-01-16T03:14:57;0.59;80.62
66722;SHT31;53633;49.932;10.884;2024-01-16T03:17:24;0.58;80.56
66722;SHT31;53633;49.932;10.884;2024-01-16T03:19:51;0.55;80.31
66722;SHT31;53633;49.932;10.884;2024-01-16T03:22:18;0.60;80.43
66722;SHT31;53633;49.932;10.884;2024-01-16T03:24:45;0.59;80.25
66722;SHT31;53633;49.932;10.884;2024-01-16T03:27:11;0.58;80.34
66722;SHT31;53633;49.932;10.884;2024-01-16T03:29:38;0.56;80.41
66722;SHT31;53633;49.932;10.884;2024-01-16T03:32:06;0.53;80.38
66722;SHT31;53633;49.932;10.884;2024-01-16T03:34:33;0.55;80.43
66722;SHT31;53633;49.932;10.884;2024-01-16T03:37:00;0.53;80.54
66722;SHT31;53633;49.932;10.884;2024-01-16T03:39:26;0.60;80.52
66722;SHT31;53633;49.932;10.884;2024-01-16T03:41:53;0.65;80.50
66722;SHT31;53633;49.932;10.884;2024-01-16T03:44:20;0.53;80.48
66722;SHT31;53633;49.932;10.884;2024-01-16T03:46:47;0.62;80.41
66722;SHT31;53633;49.932;10.884;2024-01-16T03:49:15;0.66;80.38
66722;SHT31;53633;49.932;10.884;2024-01-16T03:51:42;0.59;80.38
66722;SHT31;53633;49.932;10.884;2024-01-16T03:54:08;0.62;80.66
66722;SHT31;53633;49.932;10.884;2024-01-16T03:56:35;0.60;80.74
66722;SHT31;53633;49.932;10.884;2024-01-16T03:59:02;0.62;80.66
66722;SHT31;53633;49.932;10.884;2024-01-16T04:01:31;0.63;80.70
66722;SHT31;53633;49.932;10.884;2024-01-16T04:03:58;0.58;80.73
66722;SHT31;53633;49.932;10.884;2024-01-16T04:06:26;0.66;80.52
66722;SHT31;53633;49.932;10.884;2024-01-16T04:08:53;0.75;80.47
66722;SHT31;53633;49.932;10.884;2024-01-16T04:11:20;0.66;80.39
66722;SHT31;53633;49.932;10.884;2024-01-16T04:13:47;0.69;80.40
66722;SHT31;53633;49.932;10.884;2024-01-16T04:16:13;0.72;80.30
66722;SHT31;53633;49.932;10.884;2024-01-16T04:18:42;0.69;80.18
66722;SHT31;53633;49.932;10.884;2024-01-16T04:21:09;0.76;80.18
66722;SHT31;53633;49.932;10.884;2024-01-16T04:23:37;0.65;80.12
66722;SHT31;53633;49.932;10.884;2024-01-16T04:26:04;0.73;80.27
66722;SHT31;53633;49.932;10.884;2024-01-16T04:28:31;0.75;80.23
66722;SHT31;53633;49.932;10.884;2024-01-16T04:30:57;0.75;80.21
66722;SHT31;53633;49.932;10.884;2024-01-16T04:33:24;0.69;80.26
66722;SHT31;53633;49.932;10.884;2024-01-16T04:35:51;0.65;80.21
66722;SHT31;53633;49.932;10.884;2024-01-16T04:38:18;0.69;80.09
66722;SHT31;53633;49.932;10.884;2024-01-16T04:40:46;0.59;80.11
66722;SHT31;53633;49.932;10.884;2024-01-16T04:43:13;0.50;80.38
66722;SHT31;53633;49.932;10.884;2024-01-16T04:45:40;0.55;80.40
66722;SHT31;53633;49.932;10.884;2024-01-16T04:48:07;0.56;80.34
66722;SHT31;53633;49.932;10.884;2024-01-16T04:50:34;0.56;80.44
66722;SHT31;53633;49.932;10.884;2024-01-16T04:53:01;0.53;80.33
66722;SHT31;53633;49.932;10.884;2024-01-16T04:55:28;0.50;80.31
66722;SHT31;53633;49.932;10.884;2024-01-16T04:57:56;0.45;80.37
66722;SHT31;53633;49.932;10.884;2024-01-16T05:00:23;0.45;80.51
66722;SHT31;53633;49.932;10.884;2024-01-16T05:02:50;0.50;80.47
66722;SHT31;53633;49.932;10.884;2024-01-16T05:05:17;0.45;80.64
66722;SHT31;53633;49.932;10.884;2024-01-16T05:07:44;0.52;80.56
66722;SHT31;53633;49.932;10.884;2024-01-16T05:10:11;0.56;80.33
66722;SHT31;53633;49.932;10.884;2024-01-16T05:12:38;0.48;80.26
66722;SHT31;53633;49.932;10.884;2024-01-16T05:15:07;0.39;80.37
66722;SHT31;53633;49.932;10.884;2024-01-16T05:17:34;0.35;80.62
66722;SHT31;53633;49.932;10.884;2024-01-16T05:20:02;0.29;80.67
66722;SHT31;53633;49.932;10.884;2024-01-16T05:22:28;0.29;80.73
66722;SHT31;53633;49.932;10.884;2024-01-16T05:24:55;0.24;80.75
66722;SHT31;53633;49.932;10.884;2024-01-16T05:27:22;0.25;80.79
66722;SHT31;53633;49.932;10.884;2024-01-16T05:29:48;0.14;80.87
66722;SHT31;53633;49.932;10.884;2024-01-16T05:32:17;0.12;81.04
66722;SHT31;53633;49.932;10.884;2024-01-16T05:34:43;0.17;81.08
66722;SHT31;53633;49.932;10.884;2024-01-16T05:37:10;0.18;81.30
66722;SHT31;53633;49.932;10.884;2024-01-16T05:39:37;0.18;81.27
66722;SHT31;53633;49.932;10.884;2024-01-16T05:42:04;0.24;81.30
66722;SHT31;53633;49.932;10.884;2024-01-16T05:44:31;0.29;81.12
66722;SHT31;53633;49.932;10.884;2024-01-16T05:46:58;0.39;80.98
66722;SHT31;53633;49.932;10.884;2024-01-16T05:49:26;0.44;80.94
66722;SHT31;53633;49.932;10.884;2024-01-16T05:51:53;0.46;80.92
66722;SHT31;53633;49.932;10.884;2024-01-16T05:54:19;0.50;80.89
66722;SHT31;53633;49.932;10.884;2024-01-16T05:56:46;0.50;80.85
66722;SHT31;53633;49.932;10.884;2024-01-16T05:59:13;0.48;80.74
66722;SHT31;53633;49.932;10.884;2024-01-16T06:01:40;0.55;80.78
66722;SHT31;53633;49.932;10.884;2024-01-16T06:04:06;0.55;80.61
66722;SHT31;53633;49.932;10.884;2024-01-16T06:06:34;0.53;80.66
66722;SHT31;53633;49.932;10.884;2024-01-16T06:09:01;0.60;80.61
66722;SHT31;53633;49.932;10.884;2024-01-16T06:11:31;0.56;80.70
66722;SHT31;53633;49.932;10.884;2024-01-16T06:13:58;0.58;80.73
66722;SHT31;53633;49.932;10.884;2024-01-16T06:16:25;0.59;80.78
66722;SHT31;53633;49.932;10.884;2024-01-16T06:18:52;0.63;80.53
66722;SHT31;53633;49.932;10.884;2024-01-16T06:21:19;0.59;80.35
66722;SHT31;53633;49.932;10.884;2024-01-16T06:23:51;0.55;80.23
66722;SHT31;53633;49.932;10.884;2024-01-16T06:26:18;0.58;80.47
66722;SHT31;53633;49.932;10.884;2024-01-16T06:28:45;0.55;80.55
66722;SHT31;53633;49.932;10.884;2024-01-16T06:31:11;0.65;80.51
66722;SHT31;53633;49.932;10.884;2024-01-16T06:33:38;0.65;80.54
66722;SHT31;53633;49.932;10.884;2024-01-16T06:36:06;0.62;80.52
66722;SHT31;53633;49.932;10.884;2024-01-16T06:38:33;0.46;80.78
66722;SHT31;53633;49.932;10.884;2024-01-16T06:41:01;0.35;81.23
66722;SHT31;53633;49.932;10.884;2024-01-16T06:43:28;0.33;81.17
66722;SHT31;53633;49.932;10.884;2024-01-16T06:45:54;0.32;81.02
66722;SHT31;53633;49.932;10.884;2024-01-16T06:48:22;0.25;81.16
66722;SHT31;53633;49.932;10.884;2024-01-16T06:50:49;0.05;81.72
66722;SHT31;53633;49.932;10.884;2024-01-16T06:53:15;0.10;81.84
66722;SHT31;53633;49.932;10.884;2024-01-16T06:55:43;0.00;81.88
66722;SHT31;53633;49.932;10.884;2024-01-16T06:58:11;0.07;81.77
66722;SHT31;53633;49.932;10.884;2024-01-16T07:00:37;0.02;81.82
66722;SHT31;53633;49.932;10.884;2024-01-16T07:03:04;-0.07;81.99
66722;SHT31;53633;49.932;10.884;2024-01-16T07:05:31;0.04;82.02
66722;SHT31;53633;49.932;10.884;2024-01-16T07:07:58;0.05;81.95
66722;SHT31;53633;49.932;10.884;2024-01-16T07:10:24;0.02;81.82
66722;SHT31;53633;49.932;10.884;2024-01-16T07:12:51;0.10;81.81
66722;SHT31;53633;49.932;10.884;2024-01-16T07:15:19;0.05;81.55
66722;SHT31;53633;49.932;10.884;2024-01-16T07:17:46;0.02;81.39
66722;SHT31;53633;49.932;10.884;2024-01-16T07:20:13;0.07;81.63
66722;SHT31;53633;49.932;10.884;2024-01-16T07:22:40;0.04;81.68
66722;SHT31;53633;49.932;10.884;2024-01-16T07:25:07;0.00;81.74
66722;SHT31;53633;49.932;10.884;2024-01-16T07:27:34;-0.03;81.91
66722;SHT31;53633;49.932;10.884;2024-01-16T07:30:01;-0.06;81.90
66722;SHT31;53633;49.932;10.884;2024-01-16T07:32:29;-0.06;81.92
66722;SHT31;53633;49.932;10.884;2024-01-16T07:34:58;0.02;81.67
66722;SHT31;53633;49.932;10.884;2024-01-16T07:37:25;0.08;81.72
66722;SHT31;53633;49.932;10.884;2024-01-16T07:39:51;0.10;81.37
66722;SHT31;53633;49.932;10.884;2024-01-16T07:42:18;0.08;81.34
66722;SHT31;53633;49.932;10.884;2024-01-16T07:44:45;0.11;81.37
66722;SHT31;53633;49.932;10.884;2024-01-16T07:47:12;0.14;81.22
66722;SHT31;53633;49.932;10.884;2024-01-16T07:49:40;0.14;81.14
66722;SHT31;53633;49.932;10.884;2024-01-16T07:52:07;0.21;81.15
66722;SHT31;53633;49.932;10.884;2024-01-16T07:54:33;0.29;81.19
66722;SHT31;53633;49.932;10.884;2024-01-16T07:57:00;0.38;81.05
66722;SHT31;53633;49.932;10.884;2024-01-16T07:59:27;0.44;80.71
66722;SHT31;53633;49.932;10.884;2024-01-16T08:01:54;0.41;80.61
66722;SHT31;53633;49.932;10.884;2024-01-16T08:04:21;0.46;80.71
66722;SHT31;53633;49.932;10.884;2024-01-16T08:06:49;0.50;80.75
66722;SHT31;53633;49.932;10.884;2024-01-16T08:09:16;0.55;80.43
66722;SHT31;53633;49.932;10.884;2024-01-16T08:11:42;0.52;80.22
66722;SHT31;53633;49.932;10.884;2024-01-16T08:14:09;0.58;80.29
66722;SHT31;53633;49.932;10.884;2024-01-16T08:16:36;0.60;80.16
66722;SHT31;53633;49.932;10.884;2024-01-16T08:19:02;0.59;80.08
66722;SHT31;53633;49.932;10.884;2024-01-16T08:21:29;0.65;79.93
66722;SHT31;53633;49.932;10.884;2024-01-16T08:23:57;0.69;79.59
66722;SHT31;53633;49.932;10.884;2024-01-16T08:26:24;0.73;79.53
66722;SHT31;53633;49.932;10.884;2024-01-16T08:28:51;0.73;79.56
66722;SHT31;53633;49.932;10.884;2024-01-16T08:31:18;0.75;79.48
66722;SHT31;53633;49.932;10.884;2024-01-16T08:33:45;0.75;79.36
66722;SHT31;53633;49.932;10.884;2024-01-16T08:36:14;0.73;79.24
66722;SHT31;53633;49.932;10.884;2024-01-16T08:38:41;0.75;79.22
66722;SHT31;53633;49.932;10.884;2024-01-16T08:41:09;0.75;79.33
66722;SHT31;53633;49.932;10.884;2024-01-16T08:43:36;0.75;79.36
66722;SHT31;53633;49.932;10.884;2024-01-16T08:46:03;0.75;79.34
66722;SHT31;53633;49.932;10.884;2024-01-16T08:48:29;0.80;79.29
66722;SHT31;53633;49.932;10.884;2024-01-16T08:50:56;0.80;79.18
66722;SHT31;53633;49.932;10.884;2024-01-16T08:53:23;0.86;79.06
66722;SHT31;53633;49.932;10.884;2024-01-16T08:55:50;0.81;79.06
66722;SHT31;53633;49.932;10.884;2024-01-16T08:58:18;0.88;78.95
66722;SHT31;53633;49.932;10.884;2024-01-16T09:00:45;0.86;78.88
66722;SHT31;53633;49.932;10.884;2024-01-16T09:03:12;0.84;78.85
66722;SHT31;53633;49.932;10.884;2024-01-16T09:05:39;0.88;78.72
66722;SHT31;53633;49.932;10.884;2024-01-16T09:08:09;0.88;78.72
66722;SHT31;53633;49.932;10.884;2024-01-16T09:10:39;0.96;78.82
66722;SHT31;53633;49.932;10.884;2024-01-16T09:13:06;1.14;78.69
66722;SHT31;53633;49.932;10.884;2024-01-16T09:15:34;1.17;78.13
66722;SHT31;53633;49.932;10.884;2024-01-16T09:18:01;1.36;77.81
66722;SHT31;53633;49.932;10.884;2024-01-16T09:20:27;1.46;77.54
66722;SHT31;53633;49.932;10.884;2024-01-16T09:22:54;1.48;77.26
66722;SHT31;53633;49.932;10.884;2024-01-16T09:25:21;1.43;77.25
66722;SHT31;53633;49.932;10.884;2024-01-16T09:27:47;1.46;77.14
66722;SHT31;53633;49.932;10.884;2024-01-16T09:30:15;1.51;77.17
66722;SHT31;53633;49.932;10.884;2024-01-16T09:32:43;1.42;77.09
66722;SHT31;53633;49.932;10.884;2024-01-16T09:35:10;1.41;77.27
66722;SHT31;53633;49.932;10.884;2024-01-16T09:37:36;1.46;77.19
66722;SHT31;53633;49.932;10.884;2024-01-16T09:40:04;1.46;77.19
66722;SHT31;53633;49.932;10.884;2024-01-16T09:42:31;1.49;77.27
66722;SHT31;53633;49.932;10.884;2024-01-16T09:45:00;1.48;77.42
66722;SHT31;53633;49.932;10.884;2024-01-16T09:47:27;1.39;77.14
66722;SHT31;53633;49.932;10.884;2024-01-16T09:49:57;1.39;77.26
66722;SHT31;53633;49.932;10.884;2024-01-16T09:52:24;1.35;77.10
66722;SHT31;53633;49.932;10.884;2024-01-16T09:54:51;1.34;77.66
66722;SHT31;53633;49.932;10.884;2024-01-16T09:57:19;1.35;77.55
66722;SHT31;53633;49.932;10.884;2024-01-16T09:59:46;1.31;77.40
66722;SHT31;53633;49.932;10.884;2024-01-16T10:02:14;1.25;77.73
66722;SHT31;53633;49.932;10.884;2024-01-16T10:04:41;1.27;77.62
66722;SHT31;53633;49.932;10.884;2024-01-16T10:07:10;1.35;77.49
66722;SHT31;53633;49.932;10.884;2024-01-16T10:09:38;1.31;77.39
66722;SHT31;53633;49.932;10.884;2024-01-16T10:12:06;1.31;77.50
66722;SHT31;53633;49.932;10.884;2024-01-16T10:14:33;1.30;77.55
66722;SHT31;53633;49.932;10.884;2024-01-16T10:17:01;1.32;77.44
66722;SHT31;53633;49.932;10.884;2024-01-16T10:19:29;1.38;77.43
66722;SHT31;53633;49.932;10.884;2024-01-16T10:22:13;1.32;77.20
66722;SHT31;53633;49.932;10.884;2024-01-16T10:24:40;1.20;77.36
66722;SHT31;53633;49.932;10.884;2024-01-16T10:27:07;1.36;77.38
66722;SHT31;53633;49.932;10.884;2024-01-16T10:29:33;1.48;77.16
66722;SHT31;53633;49.932;10.884;2024-01-16T10:32:27;1.55;76.92
66722;SHT31;53633;49.932;10.884;2024-01-16T10:35:01;1.59;76.93
66722;SHT31;53633;49.932;10.884;2024-01-16T10:37:30;1.59;76.67
66722;SHT31;53633;49.932;10.884;2024-01-16T10:39:57;1.77;76.45
66722;SHT31;53633;49.932;10.884;2024-01-16T10:42:23;1.86;76.25
66722;SHT31;53633;49.932;10.884;2024-01-16T10:44:53;1.81;75.88
66722;SHT31;53633;49.932;10.884;2024-01-16T10:47:21;1.93;75.77
66722;SHT31;53633;49.932;10.884;2024-01-16T10:49:48;1.96;75.47
66722;SHT31;53633;49.932;10.884;2024-01-16T10:52:17;1.94;75.30
66722;SHT31;53633;49.932;10.884;2024-01-16T10:54:48;1.99;75.28
66722;SHT31;53633;49.932;10.884;2024-01-16T10:57:15;1.97;74.98
66722;SHT31;53633;49.932;10.884;2024-01-16T10:59:50;2.03;74.87
66722;SHT31;53633;49.932;10.884;2024-01-16T11:02:20;2.00;74.84
66722;SHT31;53633;49.932;10.884;2024-01-16T11:04:50;2.01;75.13
66722;SHT31;53633;49.932;10.884;2024-01-16T11:07:19;2.10;75.02
66722;SHT31;53633;49.932;10.884;2024-01-16T11:09:48;2.06;74.90
66722;SHT31;53633;49.932;10.884;2024-01-16T11:12:15;2.08;74.68
66722;SHT31;53633;49.932;10.884;2024-01-16T11:14:44;1.69;75.16
66722;SHT31;53633;49.932;10.884;2024-01-16T11:17:12;1.77;75.41
66722;SHT31;53633;49.932;10.884;2024-01-16T11:19:39;1.83;75.55
66722;SHT31;53633;49.932;10.884;2024-01-16T11:22:27;1.84;75.52
66722;SHT31;53633;49.932;10.884;2024-01-16T11:25:12;1.94;75.45
66722;SHT31;53633;49.932;10.884;2024-01-16T11:27:40;1.93;75.20
66722;SHT31;53633;49.932;10.884;2024-01-16T11:30:07;1.94;75.38
66722;SHT31;53633;49.932;10.884;2024-01-16T11:32:37;1.87;75.14
66722;SHT31;53633;49.932;10.884;2024-01-16T11:35:06;1.83;74.97
66722;SHT31;53633;49.932;10.884;2024-01-16T11:37:33;1.84;75.22
66722;SHT31;53633;49.932;10.884;2024-01-16T11:40:32;1.80;75.20
66722;SHT31;53633;49.932;10.884;2024-01-16T11:46:01;1.81;75.17
66722;SHT31;53633;49.932;10.884;2024-01-16T11:48:28;1.90;75.10
66722;SHT31;53633;49.932;10.884;2024-01-16T11:50:55;1.89;74.92
66722;SHT31;53633;49.932;10.884;2024-01-16T11:53:32;1.79;74.76
66722;SHT31;53633;49.932;10.884;2024-01-16T11:56:15;1.77;74.89
66722;SHT31;53633;49.932;10.884;2024-01-16T11:59:26;1.77;74.80
66722;SHT31;53633;49.932;10.884;2024-01-16T12:02:00;1.84;74.11
66722;SHT31;53633;49.932;10.884;2024-01-16T12:04:31;1.83;74.25
66722;SHT31;53633;49.932;10.884;2024-01-16T12:06:58;1.84;74.52
66722;SHT31;53633;49.932;10.884;2024-01-16T12:09:26;1.87;74.49
66722;SHT31;53633;49.932;10.884;2024-01-16T12:11:59;2.03;74.56
66722;SHT31;53633;49.932;10.884;2024-01-16T12:14:27;2.04;74.41
66722;SHT31;53633;49.932;10.884;2024-01-16T12:17:08;2.06;74.29
66722;SHT31;53633;49.932;10.884;2024-01-16T12:19:35;2.15;74.20
66722;SHT31;53633;49.932;10.884;2024-01-16T12:22:02;2.21;74.13
66722;SHT31;53633;49.932;10.884;2024-01-16T12:24:29;2.18;74.13
66722;SHT31;53633;49.932;10.884;2024-01-16T12:26:58;2.24;74.05
66722;SHT31;53633;49.932;10.884;2024-01-16T12:29:25;2.27;73.55
66722;SHT31;53633;49.932;10.884;2024-01-16T12:32:04;2.18;72.90
66722;SHT31;53633;49.932;10.884;2024-01-16T12:34:31;2.24;73.13
66722;SHT31;53633;49.932;10.884;2024-01-16T12:37:04;2.14;73.32
66722;SHT31;53633;49.932;10.884;2024-01-16T12:39:31;2.22;73.09
66722;SHT31;53633;49.932;10.884;2024-01-16T12:41:59;2.28;73.30
66722;SHT31;53633;49.932;10.884;2024-01-16T12:44:26;2.29;72.90
66722;SHT31;53633;49.932;10.884;2024-01-16T12:46:54;2.32;72.88
66722;SHT31;53633;49.932;10.884;2024-01-16T12:49:21;2.31;72.67
66722;SHT31;53633;49.932;10.884;2024-01-16T12:51:48;2.35;72.40
66722;SHT31;53633;49.932;10.884;2024-01-16T12:54:17;2.25;72.26
66722;SHT31;53633;49.932;10.884;2024-01-16T12:56:44;2.25;72.50
66722;SHT31;53633;49.932;10.884;2024-01-16T12:59:14;2.27;72.91
66722;SHT31;53633;49.932;10.884;2024-01-16T13:01:42;2.29;73.14
66722;SHT31;53633;49.932;10.884;2024-01-16T13:04:09;2.35;72.92
66722;SHT31;53633;49.932;10.884;2024-01-16T13:06:36;2.35;72.92
66722;SHT31;53633;49.932;10.884;2024-01-16T13:09:05;2.39;72.77
66722;SHT31;53633;49.932;10.884;2024-01-16T13:11:44;2.42;72.58
66722;SHT31;53633;49.932;10.884;2024-01-16T13:14:13;2.31;72.73
66722;SHT31;53633;49.932;10.884;2024-01-16T13:16:39;2.25;72.61
66722;SHT31;53633;49.932;10.884;2024-01-16T13:19:06;2.25;72.68
66722;SHT31;53633;49.932;10.884;2024-01-16T13:21:33;2.20;72.54
66722;SHT31;53633;49.932;10.884;2024-01-16T13:23:59;2.21;72.60
66722;SHT31;53633;49.932;10.884;2024-01-16T13:26:26;2.28;72.75
66722;SHT31;53633;49.932;10.884;2024-01-16T13:28:53;2.29;72.54
66722;SHT31;53633;49.932;10.884;2024-01-16T13:31:21;2.25;72.45
66722;SHT31;53633;49.932;10.884;2024-01-16T13:33:48;2.32;72.78
66722;SHT31;53633;49.932;10.884;2024-01-16T13:36:15;2.35;73.04
66722;SHT31;53633;49.932;10.884;2024-01-16T13:38:43;2.34;72.90
66722;SHT31;53633;49.932;10.884;2024-01-16T13:41:10;2.41;72.50
66722;SHT31;53633;49.932;10.884;2024-01-16T13:43:37;2.37;72.66
66722;SHT31;53633;49.932;10.884;2024-01-16T13:46:03;2.41;72.83
66722;SHT31;53633;49.932;10.884;2024-01-16T13:48:31;2.42;72.68
66722;SHT31;53633;49.932;10.884;2024-01-16T13:50:58;2.46;72.56
66722;SHT31;53633;49.932;10.884;2024-01-16T13:53:25;2.49;72.49
66722;SHT31;53633;49.932;10.884;2024-01-16T13:55:52;2.49;72.55
66722;SHT31;53633;49.932;10.884;2024-01-16T13:58:19;2.34;72.41
66722;SHT31;53633;49.932;10.884;2024-01-16T14:00:47;2.29;72.41
66722;SHT31;53633;49.932;10.884;2024-01-16T14:03:13;2.27;72.48
66722;SHT31;53633;49.932;10.884;2024-01-16T14:05:41;2.11;72.01
66722;SHT31;53633;49.932;10.884;2024-01-16T14:08:08;2.13;72.67
66722;SHT31;53633;49.932;10.884;2024-01-16T14:10:35;2.14;72.77
66722;SHT31;53633;49.932;10.884;2024-01-16T14:13:02;2.10;72.76
66722;SHT31;53633;49.932;10.884;2024-01-16T14:15:29;2.13;72.65
66722;SHT31;53633;49.932;10.884;2024-01-16T14:17:56;2.13;72.66
66722;SHT31;53633;49.932;10.884;2024-01-16T14:20:24;2.17;72.81
66722;SHT31;53633;49.932;10.884;2024-01-16T14:22:55;2.20;72.85
66722;SHT31;53633;49.932;10.884;2024-01-16T14:25:22;2.20;72.57
66722;SHT31;53633;49.932;10.884;2024-01-16T14:27:56;2.22;72.60
66722;SHT31;53633;49.932;10.884;2024-01-16T14:30:23;2.24;72.42
66722;SHT31;53633;49.932;10.884;2024-01-16T14:32:50;2.24;72.55
66722;SHT31;53633;49.932;10.884;2024-01-16T14:35:17;2.20;72.74
66722;SHT31;53633;49.932;10.884;2024-01-16T14:37:44;2.28;72.80
66722;SHT31;53633;49.932;10.884;2024-01-16T14:40:12;2.24;72.50
66722;SHT31;53633;49.932;10.884;2024-01-16T14:42:39;2.22;72.54
66722;SHT31;53633;49.932;10.884;2024-01-16T14:45:06;2.24;72.57
66722;SHT31;53633;49.932;10.884;2024-01-16T14:47:33;2.22;72.57
66722;SHT31;53633;49.932;10.884;2024-01-16T14:50:00;2.14;72.52
66722;SHT31;53633;49.932;10.884;2024-01-16T14:52:27;2.04;72.65
66722;SHT31;53633;49.932;10.884;2024-01-16T14:54:53;2.04;72.60
66722;SHT31;53633;49.932;10.884;2024-01-16T14:57:21;1.99;72.54
66722;SHT31;53633;49.932;10.884;2024-01-16T14:59:52;2.01;72.90
66722;SHT31;53633;49.932;10.884;2024-01-16T15:02:19;1.94;72.77
66722;SHT31;53633;49.932;10.884;2024-01-16T15:04:46;1.64;72.80
66722;SHT31;53633;49.932;10.884;2024-01-16T15:07:13;1.72;72.84
66722;SHT31;53633;49.932;10.884;2024-01-16T15:09:43;1.69;73.16
66722;SHT31;53633;49.932;10.884;2024-01-16T15:12:10;1.72;73.38
66722;SHT31;53633;49.932;10.884;2024-01-16T15:14:38;1.66;73.12
66722;SHT31;53633;49.932;10.884;2024-01-16T15:17:05;1.66;73.15
66722;SHT31;53633;49.932;10.884;2024-01-16T15:19:32;1.60;73.15
66722;SHT31;53633;49.932;10.884;2024-01-16T15:21:58;1.66;73.25
66722;SHT31;53633;49.932;10.884;2024-01-16T15:24:25;1.62;73.13
66722;SHT31;53633;49.932;10.884;2024-01-16T15:26:52;1.59;73.39
66722;SHT31;53633;49.932;10.884;2024-01-16T15:29:20;1.66;73.13
66722;SHT31;53633;49.932;10.884;2024-01-16T15:31:48;1.70;73.04
66722;SHT31;53633;49.932;10.884;2024-01-16T15:34:15;1.64;72.79
66722;SHT31;53633;49.932;10.884;2024-01-16T15:36:43;1.59;72.80